createdAt,value
2022-12-31T00:00:59.560Z,6.90
2022-12-31T00:03:26.602Z,7.60
2022-12-31T00:05:53.654Z,8.50
2022-12-31T00:08:20.717Z,7.60
2022-12-31T00:10:47.780Z,6.90
2022-12-31T00:13:14.880Z,6.60
2022-12-31T00:15:42.517Z,6.20
2022-12-31T00:18:09.720Z,5.40
2022-12-31T00:20:41.936Z,5.50
2022-12-31T00:23:10.629Z,6.40
2022-12-31T00:25:38.018Z,7.30
2022-12-31T00:28:05.308Z,6.40
2022-12-31T00:30:34.387Z,6.80
2022-12-31T00:33:02.365Z,7.20
2022-12-31T00:35:29.621Z,6.80
2022-12-31T00:37:56.554Z,6.10
2022-12-31T00:40:23.359Z,6.30
2022-12-31T00:42:50.449Z,5.90
2022-12-31T00:45:17.469Z,6.20
2022-12-31T00:47:44.364Z,5.20
2022-12-31T00:50:11.469Z,4.70
2022-12-31T00:52:38.462Z,5.30
2022-12-31T00:55:06.154Z,4.20
2022-12-31T00:57:33.506Z,5.10
2022-12-31T01:00:00.748Z,5.40
2022-12-31T01:02:27.996Z,5.60
2022-12-31T01:04:54.960Z,5.40
2022-12-31T01:07:21.892Z,5.30
2022-12-31T01:09:48.805Z,5.50
2022-12-31T01:18:20.760Z,5.70
2022-12-31T01:20:47.635Z,5.60
2022-12-31T01:23:14.547Z,5.60
2022-12-31T01:25:45.200Z,6.00
2022-12-31T01:28:11.956Z,5.40
2022-12-31T01:30:39.968Z,5.50
2022-12-31T01:33:07.177Z,5.10
2022-12-31T01:35:35.584Z,4.90
2022-12-31T01:45:54.398Z,5.40
2022-12-31T01:48:24.318Z,8.70
2022-12-31T01:50:51.175Z,7.70
2022-12-31T01:53:18.775Z,5.90
2022-12-31T01:56:04.597Z,5.90
2022-12-31T01:58:44.532Z,6.50
2022-12-31T02:01:13.715Z,7.50
2022-12-31T02:03:40.692Z,7.00
2022-12-31T02:06:29.569Z,6.00
2022-12-31T02:08:56.687Z,6.80
2022-12-31T02:11:33.114Z,6.50
2022-12-31T02:14:04.076Z,6.10
2022-12-31T02:16:47.322Z,4.90
2022-12-31T02:19:18.461Z,6.00
2022-12-31T02:22:11.372Z,4.40
2022-12-31T02:24:46.523Z,4.80
2022-12-31T02:27:24.054Z,5.90
2022-12-31T02:30:09.506Z,5.90
2022-12-31T02:32:58.683Z,6.10
2022-12-31T02:37:53.910Z,4.90
2022-12-31T02:40:22.252Z,6.50
2022-12-31T02:42:55.131Z,5.50
2022-12-31T02:45:26.964Z,6.20
2022-12-31T02:48:05.409Z,6.10
2022-12-31T02:50:55.832Z,5.60
2022-12-31T02:53:53.051Z,5.00
2022-12-31T02:56:24.848Z,5.80
2022-12-31T02:59:35.108Z,6.20
2022-12-31T03:02:14.276Z,5.80
2022-12-31T03:04:47.196Z,5.10
2022-12-31T03:07:18.038Z,4.80
2022-12-31T03:09:45.360Z,6.40
2022-12-31T03:12:31.301Z,5.50
2022-12-31T03:14:58.389Z,4.40
2022-12-31T03:17:25.467Z,4.90
2022-12-31T03:20:11.377Z,5.20
2022-12-31T03:22:40.668Z,5.80
2022-12-31T03:25:29.046Z,5.30
2022-12-31T03:27:57.165Z,5.40
2022-12-31T03:30:24.704Z,5.70
2022-12-31T03:32:51.744Z,6.00
2022-12-31T03:35:20.709Z,4.80
2022-12-31T03:37:48.343Z,5.40
2022-12-31T03:40:15.598Z,5.40
2022-12-31T03:42:43.280Z,5.50
2022-12-31T03:45:10.823Z,5.00
2022-12-31T03:47:37.673Z,5.50
2022-12-31T03:50:05.326Z,5.00
2022-12-31T03:52:32.584Z,5.40
2022-12-31T03:54:59.716Z,5.50
2022-12-31T03:57:26.535Z,4.90
2022-12-31T03:59:53.942Z,5.60
2022-12-31T04:02:26.354Z,5.30
2022-12-31T04:04:55.977Z,4.50
2022-12-31T04:07:23.134Z,3.90
2022-12-31T04:09:50.137Z,5.50
2022-12-31T04:12:17.465Z,5.70
2022-12-31T04:14:45.015Z,5.30
2022-12-31T04:17:12.281Z,5.40
2022-12-31T04:19:39.115Z,5.30
2022-12-31T04:22:06.267Z,5.50
2022-12-31T04:24:33.400Z,5.50
2022-12-31T04:27:05.525Z,5.80
2022-12-31T04:29:34.831Z,5.60
2022-12-31T04:32:01.989Z,5.40
2022-12-31T04:34:30.009Z,5.20
2022-12-31T04:36:57.314Z,6.00
2022-12-31T04:39:25.859Z,5.40
2022-12-31T04:41:52.998Z,5.00
2022-12-31T04:44:20.093Z,5.30
2022-12-31T04:46:47.259Z,7.70
2022-12-31T04:49:14.488Z,5.00
2022-12-31T04:51:41.626Z,6.00
2022-12-31T04:54:08.627Z,6.30
2022-12-31T04:56:36.901Z,4.50
2022-12-31T04:59:05.235Z,5.00
2022-12-31T05:01:33.131Z,5.10
2022-12-31T05:04:00.449Z,5.80
2022-12-31T05:06:27.532Z,5.90
2022-12-31T05:08:54.775Z,6.10
2022-12-31T05:11:21.824Z,5.70
2022-12-31T05:13:48.774Z,6.00
2022-12-31T05:16:15.637Z,8.10
2022-12-31T05:18:42.760Z,7.20
2022-12-31T05:21:10.324Z,6.50
2022-12-31T05:23:38.131Z,6.60
2022-12-31T05:26:05.379Z,6.20
2022-12-31T05:28:32.858Z,7.90
2022-12-31T05:31:00.807Z,7.30
2022-12-31T05:33:27.928Z,6.90
2022-12-31T05:35:55.163Z,6.40
2022-12-31T05:38:23.716Z,8.00
2022-12-31T05:40:59.502Z,10.20
2022-12-31T05:43:26.414Z,8.70
2022-12-31T05:45:53.368Z,11.20
2022-12-31T05:48:20.579Z,18.00
2022-12-31T05:50:48.320Z,16.50
2022-12-31T05:53:15.094Z,23.30
2022-12-31T05:55:42.068Z,16.90
2022-12-31T05:58:09.461Z,15.20
2022-12-31T06:00:37.736Z,12.40
2022-12-31T06:03:04.835Z,14.00
2022-12-31T06:05:31.779Z,24.80
2022-12-31T06:07:59.040Z,14.30
2022-12-31T06:10:26.198Z,13.40
2022-12-31T06:12:53.850Z,15.90
2022-12-31T06:15:21.203Z,11.80
2022-12-31T06:17:48.064Z,10.50
2022-12-31T06:20:15.581Z,17.40
2022-12-31T06:22:42.414Z,15.30
2022-12-31T06:25:10.043Z,13.10
2022-12-31T06:27:37.241Z,13.70
2022-12-31T06:30:04.669Z,12.00
2022-12-31T06:32:31.932Z,8.80
2022-12-31T06:34:59.116Z,14.00
2022-12-31T06:37:25.943Z,13.80
2022-12-31T06:39:53.004Z,14.20
2022-12-31T06:42:19.996Z,9.30
2022-12-31T06:44:46.892Z,9.20
2022-12-31T06:47:14.378Z,8.10
2022-12-31T06:49:42.032Z,6.40
2022-12-31T06:52:08.933Z,6.10
2022-12-31T06:54:36.513Z,7.30
2022-12-31T06:57:04.088Z,11.20
2022-12-31T06:59:31.392Z,9.60
2022-12-31T07:02:27.110Z,10.70
2022-12-31T07:05:01.055Z,9.80
2022-12-31T07:07:35.063Z,19.10
2022-12-31T07:10:52.855Z,18.10
2022-12-31T07:13:52.081Z,13.40
2022-12-31T07:16:41.183Z,9.10
2022-12-31T07:19:19.766Z,7.80
2022-12-31T07:21:46.821Z,9.00
2022-12-31T07:24:14.659Z,10.10
2022-12-31T07:26:56.750Z,8.70
2022-12-31T07:29:27.239Z,9.20
2022-12-31T07:32:02.799Z,8.30
2022-12-31T07:34:30.535Z,8.00
2022-12-31T07:37:15.607Z,10.30
2022-12-31T07:40:00.461Z,10.00
2022-12-31T07:42:33.255Z,9.00
2022-12-31T07:45:09.480Z,9.80
2022-12-31T07:47:37.168Z,9.10
2022-12-31T07:50:05.099Z,10.10
2022-12-31T07:52:32.876Z,12.70
2022-12-31T07:54:59.938Z,13.10
2022-12-31T07:57:30.444Z,12.00
2022-12-31T08:00:13.281Z,12.00
2022-12-31T08:02:59.259Z,11.90
2022-12-31T08:05:36.367Z,12.00
2022-12-31T08:08:34.806Z,9.20
2022-12-31T08:11:26.267Z,9.30
2022-12-31T08:13:53.947Z,8.60
2022-12-31T08:16:21.894Z,11.20
2022-12-31T08:18:49.071Z,11.00
2022-12-31T08:21:45.473Z,9.70
2022-12-31T08:24:30.410Z,12.60
2022-12-31T08:27:00.326Z,9.90
2022-12-31T08:29:34.081Z,10.00
2022-12-31T08:32:12.808Z,8.60
2022-12-31T08:34:55.805Z,6.20
2022-12-31T08:37:36.675Z,7.10
2022-12-31T08:40:18.282Z,8.40
2022-12-31T08:43:07.205Z,9.20
2022-12-31T08:48:07.484Z,8.10
2022-12-31T08:50:34.419Z,9.70
2022-12-31T08:53:02.545Z,11.50
2022-12-31T08:55:29.866Z,10.80
2022-12-31T08:58:35.903Z,9.40
2022-12-31T09:01:03.462Z,8.20
2022-12-31T09:03:50.744Z,5.90
2022-12-31T09:06:20.711Z,6.10
2022-12-31T09:09:06.151Z,6.30
2022-12-31T09:11:53.573Z,7.50
2022-12-31T09:14:47.678Z,8.10
2022-12-31T09:17:47.558Z,7.50
2022-12-31T09:20:41.907Z,7.90
2022-12-31T09:23:10.291Z,7.10
2022-12-31T09:25:41.495Z,9.00
2022-12-31T09:28:28.104Z,6.20
2022-12-31T09:31:06.282Z,6.50
2022-12-31T09:33:40.671Z,6.00
2022-12-31T09:36:08.599Z,6.30
2022-12-31T09:38:56.084Z,6.40
2022-12-31T09:41:37.975Z,6.90
2022-12-31T09:44:32.440Z,7.10
2022-12-31T09:47:50.541Z,7.30
2022-12-31T09:50:46.384Z,6.70
2022-12-31T09:53:16.550Z,8.50
2022-12-31T09:55:48.894Z,7.90
2022-12-31T09:58:34.395Z,8.20
2022-12-31T10:01:17.846Z,7.40
2022-12-31T10:04:03.301Z,6.20
2022-12-31T10:07:00.433Z,5.90
2022-12-31T10:09:31.097Z,5.70
2022-12-31T10:11:58.043Z,7.10
2022-12-31T10:14:47.690Z,8.00
2022-12-31T10:17:37.758Z,7.30
2022-12-31T10:20:19.875Z,7.40
2022-12-31T10:23:01.209Z,6.20
2022-12-31T10:26:13.256Z,7.70
2022-12-31T10:28:40.780Z,6.60
2022-12-31T10:31:13.471Z,6.50
2022-12-31T10:33:49.755Z,6.20
2022-12-31T10:36:58.734Z,8.30
2022-12-31T10:39:47.767Z,6.40
2022-12-31T10:42:41.123Z,7.50
2022-12-31T10:45:44.560Z,7.00
2022-12-31T10:48:23.459Z,7.20
2022-12-31T10:51:05.789Z,6.40
2022-12-31T10:54:07.417Z,6.20
2022-12-31T10:56:37.501Z,7.50
2022-12-31T10:59:07.068Z,7.00
2022-12-31T11:01:55.860Z,7.70
2022-12-31T11:04:46.655Z,7.50
2022-12-31T11:07:27.440Z,6.70
2022-12-31T11:10:12.779Z,7.00
2022-12-31T11:13:13.032Z,6.70
2022-12-31T11:15:50.204Z,8.10
2022-12-31T11:18:27.559Z,8.30
2022-12-31T11:21:06.943Z,7.00
2022-12-31T11:24:03.501Z,8.30
2022-12-31T11:27:01.634Z,6.40
2022-12-31T11:29:47.233Z,7.20
2022-12-31T11:32:16.556Z,6.70
2022-12-31T11:40:23.185Z,6.10
2022-12-31T11:43:28.374Z,6.30
2022-12-31T11:46:04.258Z,6.30
2022-12-31T11:48:35.643Z,7.30
2022-12-31T11:51:33.007Z,7.00
2022-12-31T11:54:30.087Z,5.10
2022-12-31T11:57:22.271Z,6.00
2022-12-31T11:59:52.430Z,7.10
2022-12-31T12:02:37.996Z,6.00
2022-12-31T12:05:10.554Z,6.00
2022-12-31T12:07:38.401Z,6.70
2022-12-31T12:10:26.868Z,5.90
2022-12-31T12:12:59.328Z,6.10
2022-12-31T12:15:31.258Z,5.50
2022-12-31T12:17:59.814Z,5.80
2022-12-31T12:20:32.208Z,6.00
2022-12-31T12:23:03.120Z,6.40
2022-12-31T12:25:40.408Z,6.00
2022-12-31T12:28:24.762Z,5.90
2022-12-31T12:30:59.070Z,7.40
2022-12-31T12:33:40.617Z,5.20
2022-12-31T12:36:15.485Z,6.10
2022-12-31T12:38:42.849Z,5.80
2022-12-31T12:41:20.077Z,6.70
2022-12-31T12:43:46.801Z,6.00
2022-12-31T12:46:33.485Z,5.70
2022-12-31T12:49:00.262Z,6.20
2022-12-31T12:51:36.539Z,6.40
2022-12-31T12:54:41.474Z,6.30
2022-12-31T12:57:15.645Z,10.30
2022-12-31T12:59:54.644Z,10.60
2022-12-31T13:02:38.676Z,7.50
2022-12-31T13:05:14.528Z,6.70
2022-12-31T13:08:11.070Z,6.60
2022-12-31T13:10:41.722Z,7.10
2022-12-31T13:13:32.110Z,7.40
2022-12-31T13:16:11.243Z,7.90
2022-12-31T13:18:54.437Z,6.50
2022-12-31T13:23:59.960Z,6.60
2022-12-31T13:26:36.661Z,7.40
2022-12-31T13:29:03.694Z,7.20
2022-12-31T13:31:36.470Z,7.20
2022-12-31T13:34:09.186Z,6.90
2022-12-31T13:36:38.530Z,7.00
2022-12-31T13:39:08.162Z,6.60
2022-12-31T13:41:41.278Z,7.00
2022-12-31T13:44:12.542Z,7.40
2022-12-31T13:47:01.578Z,7.90
2022-12-31T13:51:59.395Z,6.40
2022-12-31T13:54:41.156Z,5.50
2022-12-31T13:57:39.272Z,5.60
2022-12-31T14:00:14.391Z,5.80
2022-12-31T14:02:47.480Z,6.50
2022-12-31T14:05:19.660Z,8.50
2022-12-31T14:07:49.207Z,7.40
2022-12-31T14:10:16.411Z,7.40
2022-12-31T14:12:50.309Z,7.60
2022-12-31T14:15:36.578Z,6.80
2022-12-31T14:18:34.700Z,7.00
2022-12-31T14:21:14.669Z,7.40
2022-12-31T14:23:58.108Z,7.10
2022-12-31T14:26:28.521Z,6.80
2022-12-31T14:29:00.979Z,7.20
2022-12-31T14:31:38.570Z,6.50
2022-12-31T14:34:17.765Z,6.40
2022-12-31T14:36:50.889Z,7.60
2022-12-31T14:39:26.844Z,7.20
2022-12-31T14:42:04.020Z,6.70
2022-12-31T14:44:33.560Z,7.50
2022-12-31T14:47:10.642Z,7.00
2022-12-31T14:50:04.920Z,7.60
2022-12-31T14:52:36.064Z,7.10
2022-12-31T14:55:09.468Z,7.70
2022-12-31T14:58:01.701Z,8.40
2022-12-31T15:00:32.964Z,6.60
2022-12-31T15:03:14.816Z,6.50
2022-12-31T15:06:02.038Z,6.30
2022-12-31T15:08:49.543Z,8.10
2022-12-31T15:11:41.970Z,8.50
2022-12-31T15:14:36.877Z,7.20
2022-12-31T15:17:49.984Z,7.10
2022-12-31T15:20:57.129Z,8.20
2022-12-31T15:23:46.186Z,11.00
2022-12-31T15:26:23.822Z,8.80
2022-12-31T15:29:23.638Z,10.90
2022-12-31T15:31:50.432Z,7.40
2022-12-31T15:34:33.903Z,11.00
2022-12-31T15:37:06.152Z,13.80
2022-12-31T15:39:33.003Z,12.50
2022-12-31T15:45:03.714Z,11.40
2022-12-31T15:47:33.955Z,12.80
2022-12-31T15:50:03.352Z,11.00
2022-12-31T15:52:57.609Z,8.30
2022-12-31T15:55:29.309Z,8.80
2022-12-31T15:58:06.617Z,8.40
2022-12-31T16:00:43.481Z,7.30
2022-12-31T16:03:20.210Z,7.70
2022-12-31T16:05:47.062Z,9.40
2022-12-31T16:08:18.383Z,7.50
2022-12-31T16:10:45.547Z,8.40
2022-12-31T16:13:19.048Z,7.30
2022-12-31T16:16:02.165Z,7.50
2022-12-31T16:18:43.443Z,7.50
2022-12-31T16:21:33.683Z,7.50
2022-12-31T16:24:04.796Z,8.00
2022-12-31T16:26:48.835Z,8.20
2022-12-31T16:29:16.749Z,7.80
2022-12-31T16:31:46.627Z,8.80
2022-12-31T16:34:19.715Z,7.70
2022-12-31T16:37:00.201Z,7.70
2022-12-31T16:39:37.204Z,9.30
2022-12-31T16:42:18.836Z,7.80
2022-12-31T16:44:49.044Z,7.80
2022-12-31T16:47:22.453Z,6.90
2022-12-31T16:50:00.188Z,5.60
2022-12-31T16:52:38.540Z,6.10
2022-12-31T16:55:16.979Z,5.40
2022-12-31T16:57:44.515Z,7.50
2022-12-31T17:00:15.875Z,7.10
2022-12-31T17:02:44.315Z,6.40
2022-12-31T17:05:21.743Z,6.00
2022-12-31T17:07:48.679Z,6.90
2022-12-31T17:10:23.693Z,7.10
2022-12-31T17:15:43.077Z,6.50
2022-12-31T17:18:18.804Z,7.40
2022-12-31T17:20:45.709Z,6.80
2022-12-31T17:23:25.876Z,6.90
2022-12-31T17:26:00.529Z,9.00
2022-12-31T17:28:38.163Z,7.60
2022-12-31T17:31:40.573Z,8.10
2022-12-31T17:34:14.008Z,7.70
2022-12-31T17:37:02.501Z,8.20
2022-12-31T17:39:45.955Z,7.40
2022-12-31T17:42:13.905Z,6.90
2022-12-31T17:44:42.497Z,5.30
2022-12-31T17:47:11.949Z,5.30
2022-12-31T17:49:38.703Z,5.60
2022-12-31T17:52:12.097Z,5.80
2022-12-31T17:54:39.427Z,5.80
2022-12-31T17:57:06.235Z,5.80
2022-12-31T17:59:33.445Z,6.00
2022-12-31T18:02:01.696Z,7.60
2022-12-31T18:04:29.505Z,6.40
2022-12-31T18:06:56.363Z,7.60
2022-12-31T18:09:23.230Z,7.00
2022-12-31T18:11:50.128Z,6.30
2022-12-31T18:14:17.112Z,6.80
2022-12-31T18:16:44.601Z,5.90
2022-12-31T18:19:37.669Z,5.60
2022-12-31T18:22:02.428Z,5.80
2022-12-31T18:24:29.451Z,8.20
2022-12-31T18:26:56.354Z,6.20
2022-12-31T18:29:23.905Z,6.50
2022-12-31T18:31:50.971Z,6.80
2022-12-31T18:34:18.155Z,6.80
2022-12-31T18:36:45.509Z,5.60
2022-12-31T18:39:12.588Z,4.60
2022-12-31T18:41:49.137Z,5.20
2022-12-31T18:44:16.059Z,6.00
2022-12-31T18:46:43.096Z,5.80
2022-12-31T18:49:10.374Z,7.80
2022-12-31T18:51:37.212Z,7.20
2022-12-31T18:54:06.358Z,6.90
2022-12-31T18:56:33.670Z,7.20
2022-12-31T18:59:02.424Z,8.30
2022-12-31T19:01:33.374Z,7.10
2022-12-31T19:04:02.122Z,9.30
2022-12-31T19:06:30.557Z,6.90
2022-12-31T19:08:59.161Z,7.50
2022-12-31T19:11:33.021Z,6.90
2022-12-31T19:13:59.974Z,7.30
2022-12-31T19:16:26.749Z,6.80
2022-12-31T19:18:53.761Z,7.00
2022-12-31T19:21:22.555Z,6.10
2022-12-31T19:23:50.019Z,5.50
2022-12-31T19:26:18.689Z,5.60
2022-12-31T19:28:45.673Z,5.20
2022-12-31T19:31:13.503Z,5.40
2022-12-31T19:33:41.557Z,5.40
2022-12-31T19:36:19.127Z,6.00
2022-12-31T19:38:46.085Z,5.50
2022-12-31T19:41:17.340Z,5.50
2022-12-31T19:43:44.605Z,6.20
2022-12-31T19:46:15.442Z,6.00
2022-12-31T19:48:43.425Z,5.00
2022-12-31T19:51:12.238Z,6.00
2022-12-31T19:53:39.385Z,4.70
2022-12-31T19:56:06.435Z,6.80
2022-12-31T19:58:33.805Z,6.60
2022-12-31T20:01:03.328Z,6.60
2022-12-31T20:03:32.729Z,5.80
2022-12-31T20:06:08.319Z,5.90
2022-12-31T20:08:36.440Z,6.20
2022-12-31T20:11:11.263Z,8.00
2022-12-31T20:13:40.543Z,6.50
2022-12-31T20:16:12.710Z,5.60
2022-12-31T20:18:41.305Z,6.20
2022-12-31T20:21:17.815Z,6.30
2022-12-31T20:23:45.238Z,7.70
2022-12-31T20:26:12.101Z,6.90
2022-12-31T20:28:39.267Z,6.40
2022-12-31T20:31:07.511Z,6.90
2022-12-31T20:33:34.884Z,5.60
2022-12-31T20:36:05.855Z,5.90
2022-12-31T20:38:32.787Z,6.60
2022-12-31T20:41:04.903Z,6.00
2022-12-31T20:43:32.891Z,5.60
2022-12-31T20:45:59.822Z,5.70
2022-12-31T20:48:26.625Z,5.10
2022-12-31T20:50:57.120Z,5.60
2022-12-31T20:53:24.444Z,6.20
2022-12-31T20:55:52.521Z,5.60
2022-12-31T20:58:19.503Z,6.40
2022-12-31T21:00:49.739Z,6.20
2022-12-31T21:04:02.509Z,5.70
2022-12-31T21:06:06.084Z,6.70
2022-12-31T21:08:35.210Z,5.80
2022-12-31T21:11:23.480Z,6.50
2022-12-31T21:13:50.610Z,5.70
2022-12-31T21:16:17.883Z,6.50
2022-12-31T21:18:44.980Z,5.80
2022-12-31T21:21:12.215Z,6.40
2022-12-31T21:23:39.251Z,6.10
2022-12-31T21:26:06.391Z,6.90
2022-12-31T21:28:33.620Z,6.40
2022-12-31T21:31:02.617Z,5.70
2022-12-31T21:33:29.571Z,5.20
2022-12-31T21:36:01.127Z,5.10
2022-12-31T21:38:32.120Z,5.10
2022-12-31T21:41:03.108Z,5.60
2022-12-31T21:43:29.993Z,6.00
2022-12-31T21:46:04.002Z,5.90
2022-12-31T21:48:30.949Z,6.00
2022-12-31T21:51:07.291Z,6.20
2022-12-31T21:53:37.147Z,6.30
2022-12-31T21:56:08.578Z,6.60
2022-12-31T21:58:39.401Z,6.20
2022-12-31T22:01:25.370Z,6.40
2022-12-31T22:03:52.737Z,6.50
2022-12-31T22:06:23.368Z,7.00
2022-12-31T22:08:52.538Z,6.80
2022-12-31T22:11:20.092Z,6.30
2022-12-31T22:13:46.928Z,6.60
2022-12-31T22:16:14.221Z,7.00
2022-12-31T22:18:42.859Z,6.80
2022-12-31T22:21:18.183Z,7.40
2022-12-31T22:23:56.518Z,7.00
2022-12-31T22:26:26.204Z,7.10
2022-12-31T22:28:54.576Z,7.00
2022-12-31T22:31:28.647Z,6.90
2022-12-31T22:34:01.172Z,6.80
2022-12-31T22:36:45.969Z,6.90
2022-12-31T22:39:44.624Z,7.00
2022-12-31T22:42:12.227Z,7.00
2022-12-31T22:44:40.229Z,6.50
2022-12-31T22:47:07.093Z,6.70
2022-12-31T22:49:34.064Z,6.90
2022-12-31T22:52:05.649Z,6.50
2022-12-31T22:54:36.618Z,7.20
2022-12-31T22:57:03.744Z,6.50
2022-12-31T22:59:30.608Z,7.50
2022-12-31T23:01:57.620Z,5.90
2022-12-31T23:04:24.481Z,5.40
2022-12-31T23:06:51.258Z,5.20
2022-12-31T23:09:36.843Z,5.40
2022-12-31T23:12:08.227Z,6.10
2022-12-31T23:14:54.473Z,6.10
2022-12-31T23:17:42.501Z,5.80
2022-12-31T23:20:36.170Z,6.90
2022-12-31T23:23:09.297Z,6.60
2022-12-31T23:25:47.840Z,6.30
2022-12-31T23:28:22.666Z,6.80
2022-12-31T23:30:54.001Z,7.00
2022-12-31T23:33:22.615Z,6.70
2022-12-31T23:35:49.332Z,6.30
2022-12-31T23:38:17.567Z,6.80
2022-12-31T23:40:44.725Z,6.50
2022-12-31T23:43:19.246Z,6.70
2022-12-31T23:47:41.479Z,7.50
2022-12-31T23:50:08.847Z,7.20
2022-12-31T23:52:35.867Z,7.20
2022-12-31T23:55:03.805Z,5.50
2022-12-31T23:57:31.088Z,5.90
2022-12-31T23:59:58.741Z,5.80
